Time;durP1;ratioP1;P1;durP2;ratioP2;P2;SDS_P1;SDS_P2;PMS_P1;PMS_P2;Temp;Humidity;BMP_temperature;BMP_pressure;BME280_temperature;BME280_humidity;BME280_pressure;Samples;Min_cycle;Max_cycle;Signal;HPM_P1;HPM_P2
2024/04/09 00:00:29;;;;;;;20.45;4.68;;;;;;;15.29;71.52;97770.09;5396418;26;20000;-73
2024/04/09 00:02:54;;;;;;;21.17;5.38;;;;;;;15.44;71.20;97759.00;5404876;26;20072;-73
2024/04/09 00:05:20;;;;;;;16.23;5.25;;;;;;;15.46;70.76;97745.28;5406771;26;20084;-75
2024/04/09 00:07:46;;;;;;;17.73;5.00;;;;;;;15.38;70.98;97752.16;5402893;26;20007;-74
2024/04/09 00:10:13;;;;;;;24.05;5.65;;;;;;;15.32;71.12;97737.25;5397521;26;20105;-73
2024/04/09 00:12:38;;;;;;;16.17;5.47;;;;;;;15.20;71.95;97728.13;5397694;26;20020;-72
2024/04/09 00:15:07;;;;;;;24.27;5.97;;;;;;;15.18;71.61;97724.97;5409140;26;20015;-75
2024/04/09 00:17:44;;;;;;;19.25;5.85;;;;;;;15.23;71.90;97722.94;5408780;26;19995;-72
2024/04/09 00:20:11;;;;;;;20.08;4.55;;;;;;;15.30;71.68;97720.63;5403189;26;20339;-73
2024/04/09 00:22:39;;;;;;;19.95;5.45;;;;;;;15.07;72.09;97702.88;5399671;26;20008;-72
2024/04/09 00:25:05;;;;;;;19.25;5.95;;;;;;;15.07;72.49;97716.31;5409739;26;20345;-73
2024/04/09 00:27:30;;;;;;;14.85;5.03;;;;;;;14.99;73.09;97711.69;5399635;26;20011;-72
2024/04/09 00:29:55;;;;;;;20.35;5.75;;;;;;;15.07;72.61;97713.63;5398286;26;20067;-74
2024/04/09 00:32:22;;;;;;;20.80;6.32;;;;;;;14.89;73.49;97706.56;5409489;26;20003;-72
2024/04/09 00:34:47;;;;;;;22.58;5.40;;;;;;;14.72;73.24;97699.13;5415821;26;19999;-72
2024/04/09 00:37:14;;;;;;;24.08;5.72;;;;;;;14.81;73.79;97713.44;5396558;26;20030;-72
2024/04/09 00:39:42;;;;;;;23.88;5.30;;;;;;;14.79;73.27;97712.94;5409641;26;20018;-72
2024/04/09 00:42:11;;;;;;;25.08;5.30;;;;;;;14.84;73.58;97703.97;5395054;26;20011;-72
2024/04/09 00:44:37;;;;;;;24.60;5.20;;;;;;;14.94;72.87;97715.28;5387730;26;22163;-73
2024/04/09 00:47:08;;;;;;;22.00;5.28;;;;;;;14.97;72.83;97717.38;5401837;26;20357;-76
2024/04/09 00:49:34;;;;;;;22.52;5.93;;;;;;;15.04;72.49;97716.94;5404470;26;20027;-73
2024/04/09 00:52:00;;;;;;;21.40;6.50;;;;;;;15.07;72.49;97726.31;5420999;26;20004;-73
2024/04/09 00:54:25;;;;;;;20.63;5.85;;;;;;;15.18;72.22;97723.06;5419865;26;19999;-73
2024/04/09 00:56:51;;;;;;;25.63;5.63;;;;;;;15.26;72.55;97724.22;5404906;26;20075;-73
2024/04/09 00:59:17;;;;;;;25.90;6.05;;;;;;;15.19;71.48;97710.41;5399261;26;20000;-73
2024/04/09 01:01:43;;;;;;;19.15;5.35;;;;;;;15.18;72.37;97708.84;5397572;26;20004;-73
2024/04/09 01:04:09;;;;;;;21.58;4.72;;;;;;;15.21;72.72;97714.38;5396851;26;20035;-74
2024/04/09 01:06:36;;;;;;;24.65;5.82;;;;;;;15.31;72.05;97718.72;5395867;26;20004;-73
2024/04/09 01:09:03;;;;;;;24.70;5.50;;;;;;;15.35;72.11;97725.09;5399445;26;20390;-73
2024/04/09 01:11:28;;;;;;;21.42;6.97;;;;;;;15.35;71.87;97709.75;5404407;26;20000;-74
2024/04/09 01:13:54;;;;;;;28.42;8.13;;;;;;;15.39;72.10;97709.91;5402335;26;20076;-73
2024/04/09 01:16:19;;;;;;;28.50;5.72;;;;;;;15.24;72.09;97710.28;5399917;26;20332;-73
2024/04/09 01:18:44;;;;;;;33.70;7.93;;;;;;;15.45;72.21;97722.16;5399321;26;19992;-74
2024/04/09 01:21:10;;;;;;;21.38;6.05;;;;;;;14.78;75.18;97721.31;5405760;26;20019;-73
2024/04/09 01:23:36;;;;;;;14.13;4.15;;;;;;;14.73;75.47;97714.16;5396283;26;20006;-74
2024/04/09 01:26:02;;;;;;;21.45;5.82;;;;;;;14.80;75.11;97703.00;5409090;26;20096;-74
2024/04/09 01:28:28;;;;;;;16.42;5.55;;;;;;;14.52;76.90;97710.34;5400149;26;20003;-73
2024/04/09 01:30:55;;;;;;;21.98;4.60;;;;;;;15.09;74.29;97718.72;5394491;26;19995;-74
2024/04/09 01:33:21;;;;;;;27.30;5.85;;;;;;;15.27;74.05;97729.28;5396630;26;19996;-73
2024/04/09 01:35:50;;;;;;;22.92;6.50;;;;;;;15.19;74.29;97731.91;5417992;26;19999;-73
2024/04/09 01:38:15;;;;;;;19.67;5.22;;;;;;;15.32;73.64;97725.69;5405117;26;20084;-74
2024/04/09 01:40:40;;;;;;;16.67;5.38;;;;;;;15.40;73.96;97719.56;5405011;26;19996;-73
2024/04/09 01:43:06;;;;;;;29.02;7.00;;;;;;;15.33;73.74;97724.59;5398116;26;20083;-73
2024/04/09 01:45:32;;;;;;;19.83;5.55;;;;;;;15.28;74.25;97727.41;5397702;26;20036;-73
2024/04/09 01:47:57;;;;;;;27.48;6.55;;;;;;;15.08;74.70;97741.31;5401547;26;20004;-75
2024/04/09 01:50:23;;;;;;;19.90;6.03;;;;;;;15.10;75.10;97744.50;5398058;26;20015;-74
2024/04/09 01:52:48;;;;;;;19.23;5.55;;;;;;;15.18;73.56;97741.88;5401669;26;20019;-73
2024/04/09 01:55:14;;;;;;;28.13;5.40;;;;;;;15.10;73.46;97733.75;5390871;26;20054;-75
2024/04/09 01:57:40;;;;;;;23.88;5.63;;;;;;;15.20;73.34;97734.28;5403107;26;20008;-74
2024/04/09 02:00:19;;;;;;;18.63;5.13;;;;;;;15.15;73.16;97726.38;5402234;26;19996;-73
2024/04/09 02:02:46;;;;;;;19.55;6.65;;;;;;;15.01;72.82;97747.09;5406395;26;20015;-72
2024/04/09 02:05:13;;;;;;;14.15;5.40;;;;;;;15.14;73.27;97748.16;5395888;26;20014;-73
2024/04/09 02:07:39;;;;;;;30.58;6.65;;;;;;;15.14;72.60;97748.16;5399597;26;20003;-72
2024/04/09 02:10:05;;;;;;;23.92;6.40;;;;;;;15.28;72.45;97754.28;5404604;26;20076;-73
2024/04/09 02:12:30;;;;;;;23.80;5.32;;;;;;;15.25;72.40;97757.56;5400634;26;20313;-74
2024/04/09 02:14:56;;;;;;;27.33;6.28;;;;;;;15.21;71.81;97749.34;5391006;26;20011;-73
2024/04/09 02:17:21;;;;;;;24.92;5.97;;;;;;;15.28;71.73;97733.56;5398705;26;20019;-73
2024/04/09 02:19:47;;;;;;;19.33;4.78;;;;;;;15.37;71.66;97747.06;5404065;26;20003;-72
2024/04/09 02:22:12;;;;;;;22.40;5.40;;;;;;;15.31;71.94;97729.50;5401516;26;20010;-73
2024/04/09 02:24:38;;;;;;;27.35;6.18;;;;;;;15.34;71.98;97734.22;5394790;26;20017;-73
2024/04/09 02:27:03;;;;;;;24.85;6.22;;;;;;;15.43;71.29;97718.97;5392477;26;20028;-72
2024/04/09 02:29:30;;;;;;;22.05;5.22;;;;;;;15.46;71.58;97716.50;5368981;26;21282;-74
2024/04/09 02:31:55;;;;;;;22.23;5.07;;;;;;;14.94;73.42;97709.09;5398388;26;20007;-72
2024/04/09 02:34:24;;;;;;;25.48;5.47;;;;;;;15.35;72.32;97717.00;5397325;26;20330;-73
2024/04/09 02:36:50;;;;;;;95.68;11.45;;;;;;;15.00;73.63;97703.31;5393690;26;20008;-75
2024/04/09 02:39:15;;;;;;;25.13;6.32;;;;;;;15.40;72.91;97714.97;5397712;26;20416;-73
2024/04/09 02:41:40;;;;;;;16.48;5.68;;;;;;;15.42;73.08;97714.69;5400617;26;20071;-72
2024/04/09 02:44:07;;;;;;;23.90;4.97;;;;;;;15.46;72.64;97713.00;5406037;26;20019;-74
2024/04/09 02:46:33;;;;;;;21.00;5.97;;;;;;;15.46;72.51;97713.81;5406416;26;20410;-73
2024/04/09 02:48:59;;;;;;;18.85;6.78;;;;;;;15.35;72.58;97708.94;5398534;26;20023;-73
2024/04/09 02:51:25;;;;;;;24.85;5.57;;;;;;;15.28;72.69;97695.13;5400176;26;19996;-74
2024/04/09 02:53:50;;;;;;;19.88;6.32;;;;;;;15.37;72.81;97710.25;5413005;26;20345;-74
2024/04/09 02:56:16;;;;;;;28.33;7.15;;;;;;;15.36;73.04;97716.69;5396442;26;20020;-73
2024/04/09 02:58:41;;;;;;;17.33;5.38;;;;;;;15.28;73.33;97698.63;5403220;26;20394;-74
2024/04/09 03:01:08;;;;;;;26.48;5.95;;;;;;;15.36;73.14;97715.91;5408152;26;20379;-73
2024/04/09 03:03:35;;;;;;;19.48;5.72;;;;;;;15.28;73.20;97698.63;5400987;26;20007;-74
2024/04/09 03:06:13;;;;;;;23.13;6.57;;;;;;;15.36;73.10;97713.22;5402256;26;20324;-74
2024/04/09 03:08:43;;;;;;;19.88;5.70;;;;;;;15.28;73.80;97719.34;5394937;26;20004;-74
2024/04/09 03:11:16;;;;;;;19.08;5.82;;;;;;;15.30;73.12;97709.06;5395410;26;20036;-74
2024/04/09 03:13:42;;;;;;;17.60;5.60;;;;;;;15.32;73.19;97696.09;5405537;26;20008;-74
2024/04/09 03:16:15;;;;;;;15.98;6.38;;;;;;;15.20;73.52;97712.00;5396222;26;20080;-74
2024/04/09 03:18:44;;;;;;;21.15;5.53;;;;;;;15.23;73.17;97706.00;5395583;26;20080;-74
2024/04/09 03:21:10;;;;;;;19.42;5.28;;;;;;;15.27;73.11;97688.97;5404821;26;20464;-74
2024/04/09 03:23:38;;;;;;;24.98;5.80;;;;;;;15.30;72.57;97695.63;5413026;26;20003;-74
2024/04/09 03:26:05;;;;;;;26.15;6.07;;;;;;;15.38;72.82;97687.59;5398302;26;20466;-74
2024/04/09 03:28:31;;;;;;;28.20;5.25;;;;;;;15.29;73.33;97692.13;5399195;26;20012;-74
2024/04/09 03:31:02;;;;;;;17.38;5.43;;;;;;;15.21;73.70;97686.72;5406564;26;20011;-74
2024/04/09 03:33:27;;;;;;;28.30;5.93;;;;;;;15.27;73.78;97685.47;5405163;26;20010;-73
2024/04/09 03:35:55;;;;;;;22.98;5.78;;;;;;;15.19;73.56;97670.09;5401019;26;20027;-73
2024/04/09 03:38:20;;;;;;;17.55;5.43;;;;;;;15.10;74.10;97672.72;5404520;26;20054;-74
2024/04/09 03:41:12;;;;;;;23.77;6.43;;;;;;;15.25;74.57;97674.22;5406809;26;19999;-74
2024/04/09 03:43:37;;;;;;;25.30;7.05;;;;;;;15.06;74.46;97670.94;5393035;26;20026;-73
2024/04/09 03:46:06;;;;;;;23.70;5.25;;;;;;;15.15;74.20;97675.28;5369111;26;20448;-73
2024/04/09 03:48:32;;;;;;;21.77;5.25;;;;;;;15.10;74.64;97674.59;5404698;26;20007;-73
2024/04/09 03:50:58;;;;;;;26.02;5.35;;;;;;;15.13;74.49;97682.88;5397176;26;20359;-74
2024/04/09 03:53:23;;;;;;;25.77;5.97;;;;;;;15.10;74.55;97686.16;5396196;26;19996;-76
2024/04/09 03:56:07;;;;;;;21.63;4.72;;;;;;;15.02;75.03;97670.78;5405055;26;20417;-75
2024/04/09 03:58:46;;;;;;;27.38;6.50;;;;;;;15.03;75.36;97675.84;5404802;26;20340;-74
2024/04/09 04:01:12;;;;;;;15.75;5.47;;;;;;;15.02;75.71;97679.63;5397777;26;20014;-74
2024/04/09 04:03:41;;;;;;;19.25;5.95;;;;;;;15.01;75.19;97675.34;5388755;26;22117;-73
2024/04/09 04:06:07;;;;;;;19.17;6.15;;;;;;;14.94;75.12;97674.97;5396048;26;20011;-73
2024/04/09 04:08:36;;;;;;;20.67;6.93;;;;;;;14.99;75.53;97684.81;5396969;26;20436;-72
2024/04/09 04:11:04;;;;;;;19.17;7.38;;;;;;;14.96;74.87;97672.00;5404838;26;19999;-72
2024/04/09 04:13:31;;;;;;;17.77;5.80;;;;;;;14.98;75.28;97678.63;5401160;26;19999;-72
2024/04/09 04:16:13;;;;;;;20.08;5.68;;;;;;;14.99;75.20;97680.25;5401324;26;20022;-73
2024/04/09 04:18:45;;;;;;;15.23;6.00;;;;;;;15.00;74.67;97675.66;5402980;26;19999;-73
2024/04/09 04:21:21;;;;;;;21.10;5.35;;;;;;;14.81;74.53;97653.53;5398339;26;19995;-73
2024/04/09 04:23:47;;;;;;;;;;;;;;;14.95;74.18;97681.94;5399557;26;20004;-73
2024/04/09 04:26:18;;;;;;;26.30;5.75;;;;;;;15.05;74.16;97669.38;5398057;26;19925;-73
2024/04/09 04:28:45;;;;;;;16.95;5.75;;;;;;;15.01;73.74;97671.88;5393039;26;20040;-73
2024/04/09 04:31:13;;;;;;;29.80;6.00;;;;;;;15.05;73.92;97672.84;5390538;26;20054;-73
2024/04/09 04:33:39;;;;;;;20.75;6.10;;;;;;;14.99;73.71;97676.75;5402359;26;20015;-73
2024/04/09 04:36:05;;;;;;;22.23;5.10;;;;;;;14.99;73.79;97668.69;5400058;26;20014;-73
2024/04/09 04:38:31;;;;;;;24.42;5.47;;;;;;;15.08;73.81;97682.19;5386751;26;20431;-73
2024/04/09 04:40:56;;;;;;;18.08;5.35;;;;;;;15.07;73.36;97676.00;5393600;26;19999;-73
2024/04/09 04:43:22;;;;;;;19.98;5.55;;;;;;;15.00;73.91;97689.88;5397300;26;20109;-73
2024/04/09 04:45:47;;;;;;;23.13;5.60;;;;;;;15.02;73.78;97679.63;5394213;26;20076;-73
2024/04/09 04:48:13;;;;;;;26.42;6.35;;;;;;;15.00;73.58;97678.34;5394654;26;20090;-73
2024/04/09 04:50:39;;;;;;;22.50;6.15;;;;;;;15.07;73.89;97683.31;5389616;26;20007;-73
2024/04/09 04:53:05;;;;;;;16.65;5.53;;;;;;;15.00;73.35;97676.44;5390660;26;20437;-73
2024/04/09 04:55:32;;;;;;;25.88;7.10;;;;;;;15.03;73.40;97677.72;5395541;26;20455;-73
2024/04/09 04:57:58;;;;;;;21.67;6.25;;;;;;;15.02;73.32;97693.06;5409131;26;20010;-73
2024/04/09 05:00:23;;;;;;;15.30;4.78;;;;;;;14.97;73.80;97687.81;5409343;26;20012;-73
2024/04/09 05:02:49;;;;;;;21.33;6.28;;;;;;;14.94;74.30;97688.41;5405677;26;20454;-73
2024/04/09 05:05:14;;;;;;;25.42;5.47;;;;;;;14.91;73.42;97689.03;5408903;26;20010;-73
2024/04/09 05:07:40;;;;;;;18.77;5.15;;;;;;;14.92;73.40;97679.88;5406116;26;20439;-73
2024/04/09 05:10:12;;;;;;;26.00;5.88;;;;;;;14.95;73.68;97689.22;5412150;26;20004;-75
2024/04/09 05:12:44;;;;;;;27.70;6.18;;;;;;;14.92;73.37;97687.91;5413198;26;20436;-74
2024/04/09 05:15:09;;;;;;;25.23;6.07;;;;;;;14.92;73.37;97689.81;5416619;26;21830;-74
2024/04/09 05:17:35;;;;;;;22.52;5.38;;;;;;;14.93;73.13;97689.53;5406109;26;22591;-77
2024/04/09 05:20:09;;;;;;;24.85;5.85;;;;;;;15.05;73.28;97697.03;5407932;26;19999;-74
2024/04/09 05:22:38;;;;;;;24.15;5.18;;;;;;;14.95;73.18;97699.97;5408535;26;20448;-73
2024/04/09 05:25:04;;;;;;;28.88;6.80;;;;;;;15.09;73.05;97700.72;5415023;26;20015;-73
2024/04/09 05:27:29;;;;;;;25.00;5.55;;;;;;;14.95;72.50;97692.69;5408350;26;20087;-73
2024/04/09 05:29:55;;;;;;;13.38;4.82;;;;;;;15.00;72.43;97703.31;5405796;26;19998;-72
2024/04/09 05:32:20;;;;;;;26.23;6.40;;;;;;;15.10;71.31;97694.22;5403339;26;20004;-73
2024/04/09 05:34:45;;;;;;;30.83;6.20;;;;;;;15.13;71.60;97700.88;5410770;26;20004;-73
2024/04/09 05:37:11;;;;;;;21.70;5.10;;;;;;;15.19;72.08;97705.03;5404216;26;20010;-73
2024/04/09 05:39:36;;;;;;;25.08;6.00;;;;;;;15.13;71.93;97715.13;5414669;26;20649;-72
2024/04/09 05:42:02;;;;;;;22.92;5.20;;;;;;;15.11;72.50;97701.19;5412096;26;20003;-73
2024/04/09 05:44:27;;;;;;;22.42;5.00;;;;;;;15.11;72.33;97716.53;5412240;26;20093;-73
2024/04/09 05:46:53;;;;;;;25.70;6.03;;;;;;;15.22;72.54;97715.19;5391820;26;20006;-73
2024/04/09 05:49:21;;;;;;;23.80;6.07;;;;;;;15.16;72.63;97721.78;5379469;26;19996;-73
2024/04/09 05:51:47;;;;;;;27.50;6.88;;;;;;;14.91;73.85;97718.59;5379761;26;20014;-73
2024/04/09 05:54:13;;;;;;;15.57;5.22;;;;;;;15.10;73.09;97753.34;5405586;26;19995;-72
2024/04/09 05:56:38;;;;;;;18.23;4.97;;;;;;;15.18;72.80;97765.28;5378919;26;19992;-72
2024/04/09 05:59:04;;;;;;;17.63;4.47;;;;;;;15.38;72.20;97770.16;5379012;26;20011;-72
2024/04/09 06:01:29;;;;;;;27.52;6.60;;;;;;;15.08;72.92;97770.88;5393132;26;20016;-73
2024/04/09 06:03:54;;;;;;;25.15;7.43;;;;;;;15.19;72.53;97766.84;5404778;26;20015;-73
2024/04/09 06:06:20;;;;;;;31.63;7.35;;;;;;;15.20;71.32;97777.28;5413901;26;20008;-73
2024/04/09 06:08:45;;;;;;;36.15;6.35;;;;;;;15.30;71.03;97768.22;5414031;26;20003;-73
2024/04/09 06:11:10;;;;;;;24.30;6.47;;;;;;;15.36;70.83;97769.69;5402596;26;20069;-73
2024/04/09 06:13:38;;;;;;;19.40;5.57;;;;;;;15.36;70.92;97770.47;5408691;26;19996;-72
2024/04/09 06:16:03;;;;;;;30.65;6.57;;;;;;;15.50;70.76;97765.06;5413443;26;20031;-73
2024/04/09 06:18:29;;;;;;;36.50;7.80;;;;;;;15.35;70.65;97755.47;5396846;26;20018;-73
2024/04/09 06:20:55;;;;;;;28.90;7.13;;;;;;;15.36;71.09;97737.41;5385892;26;20314;-73
2024/04/09 06:23:20;;;;;;;28.20;5.93;;;;;;;15.40;71.34;97730.31;5413984;26;20035;-73
2024/04/09 06:25:55;;;;;;;29.20;6.70;;;;;;;15.44;70.59;97756.31;5413870;26;19995;-73
2024/04/09 06:28:21;;;;;;;32.10;6.30;;;;;;;15.40;71.70;97770.66;5409033;26;20394;-73
2024/04/09 06:30:46;;;;;;;28.23;6.68;;;;;;;15.45;71.69;97782.13;5404483;26;20000;-73
2024/04/09 06:33:12;;;;;;;22.35;5.65;;;;;;;15.48;71.74;97765.38;5411460;26;20014;-73
2024/04/09 06:35:38;;;;;;;29.92;6.75;;;;;;;15.61;71.40;97752.97;5385306;26;19997;-73
2024/04/09 06:38:04;;;;;;;23.42;5.70;;;;;;;15.63;71.40;97756.13;5387841;26;20007;-73
2024/04/09 06:40:31;;;;;;;30.55;6.15;;;;;;;15.60;72.03;97776.38;5405957;26;20069;-73
2024/04/09 06:42:57;;;;;;;36.15;7.05;;;;;;;15.59;72.03;97784.75;5392291;26;20325;-73
2024/04/09 06:45:22;;;;;;;23.83;7.55;;;;;;;15.75;71.62;97804.78;5378442;26;20032;-73
2024/04/09 06:47:48;;;;;;;20.25;6.20;;;;;;;15.82;71.54;97818.59;5390397;26;20402;-72
2024/04/09 06:50:15;;;;;;;24.67;8.15;;;;;;;15.77;71.56;97821.41;5378807;26;20011;-73
2024/04/09 06:52:41;;;;;;;25.33;6.68;;;;;;;15.81;71.55;97830.50;5399389;26;20017;-73
2024/04/09 06:55:07;;;;;;;18.80;6.25;;;;;;;15.85;72.16;97853.00;5403590;26;20007;-73
2024/04/09 06:57:33;;;;;;;24.33;5.78;;;;;;;15.85;72.08;97854.88;5378800;26;20424;-73
2024/04/09 07:03:22;;;;;;;23.13;5.95;;;;;;;15.88;73.09;97852.34;5405938;26;20069;-73
2024/04/09 07:05:47;;;;;;;34.33;5.80;;;;;;;15.85;72.89;97844.13;5389841;26;20437;-72
2024/04/09 07:08:13;;;;;;;19.83;5.75;;;;;;;15.95;73.35;97850.03;5388891;26;20003;-72
2024/04/09 07:10:38;;;;;;;21.90;5.78;;;;;;;15.92;74.72;97847.19;5384303;26;20361;-72
2024/04/09 07:13:03;;;;;;;18.10;5.57;;;;;;;16.12;72.89;97858.22;5401342;26;20000;-72
2024/04/09 07:15:29;;;;;;;23.58;6.53;;;;;;;16.15;73.83;97862.19;5378797;26;20078;-72
2024/04/09 07:17:56;;;;;;;14.02;4.40;;;;;;;16.18;74.60;97877.75;5394201;26;20024;-72
2024/04/09 07:20:23;;;;;;;15.38;5.50;;;;;;;16.15;74.75;97864.88;5412652;26;20007;-72
2024/04/09 07:22:49;;;;;;;17.67;5.60;;;;;;;16.17;74.24;97860.78;5394489;26;20082;-72
2024/04/09 07:25:14;;;;;;;15.80;4.43;;;;;;;16.40;72.91;97865.00;5391530;26;20439;-72
2024/04/09 07:27:39;;;;;;;17.75;5.38;;;;;;;16.54;71.94;97864.16;5377834;26;20070;-72
2024/04/09 07:30:06;;;;;;;15.73;6.65;;;;;;;16.49;72.21;97849.69;5376899;26;20035;-72
2024/04/09 07:32:31;;;;;;;26.65;6.13;;;;;;;16.55;73.37;97854.97;5377641;26;19996;-72
2024/04/09 07:34:57;;;;;;;19.95;5.25;;;;;;;16.48;73.23;97850.00;5377714;26;20027;-73
2024/04/09 07:37:23;;;;;;;17.40;4.80;;;;;;;16.56;73.32;97851.97;5403986;26;19999;-72
2024/04/09 07:39:48;;;;;;;17.85;5.70;;;;;;;16.51;74.43;97849.44;5382424;26;20007;-72
2024/04/09 07:42:14;;;;;;;11.80;4.32;;;;;;;16.43;73.86;97859.00;5401710;26;20001;-72
2024/04/09 07:44:39;;;;;;;15.38;5.03;;;;;;;16.40;74.27;97856.94;5378487;26;20032;-72
2024/04/09 07:47:07;;;;;;;17.27;6.05;;;;;;;16.45;74.02;97853.31;5398510;26;20069;-74
2024/04/09 07:49:32;;;;;;;15.10;5.45;;;;;;;16.57;73.13;97867.03;5385805;26;20008;-72
2024/04/09 07:51:58;;;;;;;12.93;4.32;;;;;;;16.71;72.38;97869.63;5377315;26;20000;-73
2024/04/09 07:54:23;;;;;;;16.40;5.10;;;;;;;16.73;73.11;97870.13;5379386;26;20018;-74
2024/04/09 07:56:48;;;;;;;13.95;3.92;;;;;;;16.76;72.81;97872.16;5410253;26;20004;-73
2024/04/09 07:59:14;;;;;;;18.17;5.00;;;;;;;16.77;73.01;97868.38;5408151;26;20022;-73
2024/04/09 08:01:39;;;;;;;14.73;4.45;;;;;;;16.95;71.79;97875.41;5389591;26;20328;-73
2024/04/09 08:04:04;;;;;;;13.13;4.85;;;;;;;16.79;72.82;97869.66;5388767;26;20328;-73
2024/04/09 08:06:33;;;;;;;16.95;4.70;;;;;;;16.94;71.91;97879.22;5412498;26;20007;-72
2024/04/09 08:08:59;;;;;;;12.20;4.72;;;;;;;16.91;72.10;97879.81;5412560;26;19999;-73
2024/04/09 08:11:24;;;;;;;14.32;4.35;;;;;;;17.05;72.08;97889.41;5398504;26;20069;-73
2024/04/09 08:13:50;;;;;;;13.63;4.55;;;;;;;17.16;71.16;97898.00;5381957;26;19996;-73
2024/04/09 08:16:15;;;;;;;15.45;5.10;;;;;;;17.12;72.09;97900.50;5387088;26;20091;-73
2024/04/09 08:18:41;;;;;;;13.90;4.95;;;;;;;17.12;72.65;97887.00;5376334;26;19996;-73
2024/04/09 08:21:09;;;;;;;21.50;4.72;;;;;;;17.21;71.33;97897.84;5398222;26;20019;-73
2024/04/09 08:23:35;;;;;;;19.40;4.15;;;;;;;17.28;71.88;97894.69;5412292;26;19995;-74
2024/04/09 08:26:00;;;;;;;20.45;5.15;;;;;;;17.38;70.91;97914.06;5405531;26;20467;-72
2024/04/09 08:28:26;;;;;;;12.65;4.55;;;;;;;17.33;70.87;97921.50;5406118;26;20012;-74
2024/04/09 08:30:52;;;;;;;12.85;3.83;;;;;;;17.23;70.91;97926.06;5381289;26;20003;-74
2024/04/09 08:33:17;;;;;;;9.15;3.30;;;;;;;17.34;70.70;97934.69;5399781;26;20525;-74
2024/04/09 08:35:47;;;;;;;12.10;4.05;;;;;;;17.35;70.42;97936.25;5382393;26;20017;-73
2024/04/09 08:38:22;;;;;;;13.05;3.78;;;;;;;17.39;70.42;97934.53;5376939;26;20004;-72
2024/04/09 08:40:47;;;;;;;16.25;3.80;;;;;;;17.36;70.16;97939.75;5377324;26;20046;-74
2024/04/09 08:43:15;;;;;;;12.00;4.40;;;;;;;17.38;70.22;97946.44;5399477;26;19996;-73
2024/04/09 08:45:42;;;;;;;12.35;3.50;;;;;;;17.36;70.59;97945.97;5378036;26;20060;-72
2024/04/09 08:48:10;;;;;;;16.20;3.80;;;;;;;17.41;70.49;97972.75;5382620;26;20437;-74
2024/04/09 08:50:38;;;;;;;13.23;4.07;;;;;;;17.43;70.51;97980.56;5398720;26;20536;-72
2024/04/09 08:53:03;;;;;;;11.52;3.80;;;;;;;17.37;70.36;97977.19;5382047;26;20011;-72
2024/04/09 08:55:30;;;;;;;13.77;3.33;;;;;;;17.39;70.59;97988.47;5355546;26;20006;-71
2024/04/09 08:57:56;;;;;;;13.93;3.22;;;;;;;17.39;69.97;97977.69;5396695;26;19995;-72
2024/04/09 09:00:21;;;;;;;10.95;3.38;;;;;;;17.37;69.83;97982.59;5397964;26;20011;-71
2024/04/09 09:02:47;;;;;;;14.43;4.28;;;;;;;17.42;70.44;97981.66;5401410;26;20000;-71
2024/04/09 09:05:17;;;;;;;14.77;4.35;;;;;;;17.50;70.41;97981.72;5389308;26;19996;-72
2024/04/09 09:07:42;;;;;;;8.85;2.95;;;;;;;17.52;70.08;97986.78;5377054;26;20008;-73
2024/04/09 09:10:09;;;;;;;13.73;4.32;;;;;;;17.54;70.42;97984.59;5392042;26;20077;-72
2024/04/09 09:12:35;;;;;;;14.68;3.38;;;;;;;17.54;70.31;97993.47;5390446;26;20010;-71
2024/04/09 09:15:00;;;;;;;8.98;3.08;;;;;;;17.72;69.79;97994.28;5381201;26;19992;-72
2024/04/09 09:17:26;;;;;;;12.65;3.10;;;;;;;17.74;69.57;98010.97;5386799;26;20131;-72
2024/04/09 09:20:00;;;;;;;7.75;3.55;;;;;;;17.83;69.47;98017.19;5385361;26;20015;-72
2024/04/09 09:22:29;;;;;;;13.50;3.03;;;;;;;18.01;68.57;98021.50;5407779;26;19995;-73
2024/04/09 09:24:58;;;;;;;12.98;2.97;;;;;;;17.71;69.63;98023.19;5398884;26;20061;-72
2024/04/09 09:27:23;;;;;;;11.75;3.10;;;;;;;17.98;68.57;98027.53;5394370;26;20073;-73
2024/04/09 09:29:54;;;;;;;10.25;2.97;;;;;;;18.04;68.20;98014.69;5388886;26;20011;-72
2024/04/09 09:32:21;;;;;;;15.05;4.40;;;;;;;18.09;68.16;98022.59;5393487;26;20002;-73
2024/04/09 09:34:48;;;;;;;10.15;2.80;;;;;;;18.24;67.39;98016.75;5379733;26;20029;-72
2024/04/09 09:37:14;;;;;;;8.13;2.92;;;;;;;18.20;68.81;98010.38;5394128;26;19994;-73
2024/04/09 09:39:41;;;;;;;10.50;2.90;;;;;;;18.23;68.09;98017.84;5409370;26;20006;-72
2024/04/09 09:42:09;;;;;;;12.07;3.63;;;;;;;18.34;67.38;98019.13;5386686;26;20011;-72
2024/04/09 09:44:36;;;;;;;12.55;3.25;;;;;;;18.45;67.21;98025.81;5379818;26;20341;-72
2024/04/09 09:47:05;;;;;;;8.20;3.00;;;;;;;18.55;66.93;98028.19;5408063;26;20630;-73
2024/04/09 09:49:32;;;;;;;8.13;2.72;;;;;;;18.73;66.34;98031.66;5396694;26;19996;-71
2024/04/09 09:51:59;;;;;;;7.15;3.42;;;;;;;18.77;66.11;98022.59;5389536;26;19999;-72
2024/04/09 09:54:24;;;;;;;10.57;2.70;;;;;;;18.59;66.50;98026.44;5412470;26;20009;-72
2024/04/09 09:57:01;;;;;;;6.38;2.42;;;;;;;18.66;66.42;98027.53;5394769;26;20351;-72
2024/04/09 09:59:42;;;;;;;5.15;2.58;;;;;;;18.57;66.66;98037.56;5397494;26;20007;-72
2024/04/09 10:02:09;;;;;;;9.13;2.70;;;;;;;18.85;65.37;98040.69;5406452;26;20011;-72
2024/04/09 10:04:37;;;;;;;8.20;2.28;;;;;;;18.88;65.59;98042.78;5378023;26;20019;-73
2024/04/09 10:07:03;;;;;;;5.97;2.78;;;;;;;18.93;65.74;98041.81;5382042;26;20379;-73
2024/04/09 10:09:48;;;;;;;6.45;2.10;;;;;;;18.90;65.83;98042.44;5406402;26;20012;-72
2024/04/09 10:12:20;;;;;;;7.20;3.53;;;;;;;18.87;65.17;98045.81;5406471;26;19995;-72
2024/04/09 10:14:54;;;;;;;11.73;2.67;;;;;;;18.75;65.79;98046.47;5393124;26;20107;-72
2024/04/09 10:17:20;;;;;;;6.28;2.45;;;;;;;18.60;66.23;98034.25;5379296;26;20078;-72
2024/04/09 10:19:47;;;;;;;7.50;2.38;;;;;;;18.72;65.51;98052.50;5394122;26;19996;-72
2024/04/09 10:22:15;;;;;;;6.50;2.28;;;;;;;18.68;65.36;98044.25;5394638;26;20007;-72
2024/04/09 10:24:42;;;;;;;7.53;1.90;;;;;;;18.64;65.24;98064.13;5408731;26;20003;-73
2024/04/09 10:27:11;;;;;;;9.60;2.80;;;;;;;18.63;65.78;98063.31;5407377;26;20089;-72
2024/04/09 10:29:36;;;;;;;7.20;2.75;;;;;;;18.40;66.49;98069.97;5379172;26;19996;-72
2024/04/09 10:32:12;;;;;;;8.52;2.20;;;;;;;18.32;66.21;98062.69;5380190;26;20023;-71
2024/04/09 10:34:37;;;;;;;4.50;1.85;;;;;;;18.24;66.96;98060.75;5409574;26;20010;-72
2024/04/09 10:37:04;;;;;;;6.35;2.22;;;;;;;18.23;66.39;98075.38;5413662;26;20448;-74
2024/04/09 10:39:32;;;;;;;4.45;1.98;;;;;;;18.10;66.55;98079.03;5401518;26;20004;-72
2024/04/09 10:41:57;;;;;;;4.90;1.92;;;;;;;18.13;66.45;98093.81;5394159;26;20076;-72
2024/04/09 10:44:23;;;;;;;15.25;3.08;;;;;;;18.10;66.58;98080.91;5396720;26;20410;-73
2024/04/09 10:46:49;;;;;;;6.43;2.30;;;;;;;18.07;66.24;98081.53;5386009;26;20012;-73
2024/04/09 10:49:15;;;;;;;10.32;3.15;;;;;;;17.91;68.18;98095.50;5378974;26;19999;-71
2024/04/09 10:51:40;;;;;;;11.38;2.78;;;;;;;17.99;67.23;98083.13;5393030;26;19991;-72
2024/04/09 10:54:06;;;;;;;9.38;3.25;;;;;;;17.97;67.87;98086.13;5413483;26;19998;-72
2024/04/09 10:56:35;;;;;;;11.93;2.47;;;;;;;18.10;67.60;98105.22;5397576;26;20340;-74
2024/04/09 10:59:00;;;;;;;8.80;2.75;;;;;;;18.04;68.67;98112.69;5397050;26;20094;-72
2024/04/09 11:01:26;;;;;;;28.55;3.88;;;;;;;18.11;67.77;98096.03;5393772;26;20001;-72
2024/04/09 11:03:51;;;;;;;8.05;2.88;;;;;;;18.05;68.61;98121.56;5413807;26;20077;-73
2024/04/09 11:06:17;;;;;;;4.75;2.63;;;;;;;18.16;68.48;98125.56;5414148;26;19999;-72
2024/04/09 11:08:45;;;;;;;7.40;2.80;;;;;;;18.04;69.07;98112.69;5398179;26;19996;-71
2024/04/09 11:11:10;;;;;;;9.68;2.85;;;;;;;18.16;68.64;98123.66;5405399;26;20003;-72
2024/04/09 11:13:36;;;;;;;5.15;2.60;;;;;;;18.14;68.77;98139.41;5402928;26;19996;-72
2024/04/09 11:16:01;;;;;;;8.88;2.83;;;;;;;18.07;68.72;98136.34;5413132;26;20029;-72
2024/04/09 11:18:27;;;;;;;5.60;2.42;;;;;;;17.93;69.26;98139.19;5398628;26;20010;-72
2024/04/09 11:21:03;;;;;;;11.23;3.38;;;;;;;18.03;69.05;98157.00;5413475;26;20010;-72
2024/04/09 11:23:31;;;;;;;6.07;2.80;;;;;;;17.75;70.10;98158.34;5396464;26;20335;-72
2024/04/09 11:25:59;;;;;;;10.50;2.88;;;;;;;17.58;70.25;98163.66;5384380;26;20018;-72
2024/04/09 11:28:24;;;;;;;3.67;2.33;;;;;;;17.51;69.78;98164.09;5382196;26;20501;-72